createdAt,value
2018-10-03T00:00:02.955Z,87.21
2018-10-03T00:01:02.927Z,87.87
2018-10-03T00:02:02.948Z,87.87
2018-10-03T00:03:02.972Z,87.49
2018-10-03T00:04:03.008Z,87.59
2018-10-03T00:05:03.023Z,87.59
2018-10-03T00:06:03.049Z,87.21
2018-10-03T00:07:03.090Z,87.02
2018-10-03T00:08:03.103Z,86.92
2018-10-03T00:09:03.124Z,86.82
2018-10-03T00:10:03.145Z,86.73
2018-10-03T00:11:03.162Z,86.63
2018-10-03T00:12:03.188Z,86.73
2018-10-03T00:13:03.228Z,86.82
2018-10-03T00:14:03.253Z,86.82
2018-10-03T00:15:03.260Z,86.25
2018-10-03T00:16:03.288Z,85.68
2018-10-03T00:17:03.317Z,85.58
2018-10-03T00:18:03.345Z,85.97
2018-10-03T00:19:03.360Z,85.68
2018-10-03T00:20:03.375Z,85.39
2018-10-03T00:21:03.404Z,85.21
2018-10-03T00:22:03.421Z,84.82
2018-10-03T00:23:03.450Z,84.82
2018-10-03T00:24:03.467Z,84.72
2018-10-03T00:25:03.490Z,84.82
2018-10-03T00:26:03.523Z,84.63
2018-10-03T00:27:03.538Z,84.06
2018-10-03T00:28:03.562Z,83.67
2018-10-03T00:29:03.601Z,84.06
2018-10-03T00:30:03.621Z,83.96
2018-10-03T00:31:03.649Z,84.72
2018-10-03T00:32:04.558Z,84.06
2018-10-03T00:33:03.680Z,84.06
2018-10-03T00:34:03.717Z,84.06
2018-10-03T00:35:03.732Z,84.06
2018-10-03T00:36:03.752Z,83.87
2018-10-03T00:37:03.771Z,83.29
2018-10-03T00:38:03.810Z,83.11
2018-10-03T00:39:03.833Z,83.39
2018-10-03T00:40:03.857Z,83.01
2018-10-03T00:41:03.874Z,83.29
2018-10-03T00:42:03.895Z,83.39
2018-10-03T00:43:03.916Z,83.58
2018-10-03T00:44:03.956Z,82.91
2018-10-03T00:45:03.965Z,83.01
2018-10-03T00:46:03.985Z,82.72
2018-10-03T00:47:04.010Z,82.82
2018-10-03T00:48:04.043Z,83.29
2018-10-03T00:49:04.071Z,82.63
2018-10-03T00:50:04.091Z,82.91
2018-10-03T00:51:04.116Z,82.53
2018-10-03T00:52:04.144Z,82.63
2018-10-03T00:53:04.151Z,82.82
2018-10-03T00:54:04.178Z,82.91
2018-10-03T00:55:04.212Z,83.11
2018-10-03T00:56:04.293Z,82.53
2018-10-03T00:57:04.257Z,82.91
2018-10-03T00:58:04.281Z,82.63
2018-10-03T00:59:04.293Z,82.72
2018-10-03T01:00:04.322Z,82.63
2018-10-03T01:01:04.347Z,82.15
2018-10-03T01:02:04.359Z,82.15
2018-10-03T01:03:04.392Z,82.82
2018-10-03T01:04:04.423Z,82.91
2018-10-03T01:05:04.430Z,82.82
2018-10-03T01:06:04.455Z,82.82
2018-10-03T01:07:04.487Z,82.53
2018-10-03T01:08:04.508Z,82.72
2018-10-03T01:09:04.537Z,82.63
2018-10-03T01:10:04.565Z,82.43
2018-10-03T01:11:04.572Z,83.11
2018-10-03T01:12:04.612Z,82.24
2018-10-03T01:13:04.644Z,82.53
2018-10-03T01:14:04.650Z,82.53
2018-10-03T01:15:04.695Z,82.43
2018-10-03T01:16:04.700Z,82.15
2018-10-03T01:17:04.718Z,81.58
2018-10-03T01:18:04.850Z,82.06
2018-10-03T01:19:04.764Z,81.48
2018-10-03T01:20:04.786Z,81.77
2018-10-03T01:21:04.806Z,81.67
2018-10-03T01:22:04.846Z,82.24
2018-10-03T01:23:04.884Z,82.72
2018-10-03T01:24:04.974Z,82.53
2018-10-03T01:25:04.902Z,82.43
2018-10-03T01:26:04.939Z,82.63
2018-10-03T01:27:04.951Z,82.91
2018-10-03T01:28:04.994Z,82.53
2018-10-03T01:29:04.995Z,82.91
2018-10-03T01:30:05.023Z,82.63
2018-10-03T01:31:05.043Z,82.15
2018-10-03T01:32:05.080Z,82.24
2018-10-03T01:33:05.107Z,82.15
2018-10-03T01:34:05.119Z,82.53
2018-10-03T01:35:05.143Z,82.15
2018-10-03T01:36:05.159Z,82.34
2018-10-03T01:37:05.186Z,82.43
2018-10-03T01:38:05.207Z,82.72
2018-10-03T01:39:05.233Z,82.43
2018-10-03T01:40:05.255Z,83.20
2018-10-03T01:41:05.280Z,83.67
2018-10-03T01:42:05.308Z,84.30
2018-10-03T01:43:05.325Z,85.54
2018-10-03T01:44:05.344Z,85.45
2018-10-03T01:45:05.375Z,86.98
2018-10-03T01:46:05.390Z,87.26
2018-10-03T01:47:05.423Z,87.07
2018-10-03T01:48:05.436Z,87.26
2018-10-03T01:49:05.488Z,87.16
2018-10-03T01:50:05.488Z,87.83
2018-10-03T01:51:05.524Z,87.93
2018-10-03T01:52:05.536Z,87.74
2018-10-03T01:53:05.580Z,87.54
2018-10-03T01:54:05.581Z,87.64
2018-10-03T01:55:05.620Z,87.83
2018-10-03T01:56:05.634Z,87.93
2018-10-03T01:57:05.646Z,87.64
2018-10-03T01:58:05.674Z,86.69
2018-10-03T01:59:05.702Z,86.98
2018-10-03T02:00:05.732Z,86.78
2018-10-03T02:01:05.750Z,86.69
2018-10-03T02:02:05.778Z,87.64
2018-10-03T02:03:05.793Z,87.07
2018-10-03T02:04:05.820Z,86.69
2018-10-03T02:05:05.837Z,86.88
2018-10-03T02:06:05.873Z,85.54
2018-10-03T02:07:05.899Z,84.59
2018-10-03T02:08:05.939Z,85.45
2018-10-03T02:09:05.931Z,84.49
2018-10-03T02:10:05.963Z,84.59
2018-10-03T02:11:05.984Z,84.59
2018-10-03T02:12:06.025Z,84.78
2018-10-03T02:13:06.037Z,85.25
2018-10-03T02:14:06.049Z,85.64
2018-10-03T02:15:06.572Z,85.83
2018-10-03T02:16:06.122Z,85.25
2018-10-03T02:17:06.125Z,85.45
2018-10-03T02:18:06.175Z,84.69
2018-10-03T02:19:06.188Z,85.16
2018-10-03T02:20:06.191Z,85.25
2018-10-03T02:21:06.217Z,85.25
2018-10-03T02:22:06.298Z,85.25
2018-10-03T02:23:06.269Z,85.54
2018-10-03T02:24:06.285Z,85.16
2018-10-03T02:25:06.326Z,85.25
2018-10-03T02:26:06.335Z,85.16
2018-10-03T02:27:06.352Z,85.54
2018-10-03T02:28:06.376Z,84.78
2018-10-03T02:29:06.406Z,85.25
2018-10-03T02:30:06.419Z,85.73
2018-10-03T02:31:06.470Z,85.25
2018-10-03T02:32:06.475Z,84.30
2018-10-03T02:33:06.499Z,84.30
2018-10-03T02:34:06.520Z,84.40
2018-10-03T02:35:06.539Z,84.01
2018-10-03T02:36:06.564Z,84.69
2018-10-03T02:37:06.580Z,83.83
2018-10-03T02:38:06.613Z,83.44
2018-10-03T02:39:06.662Z,83.64
2018-10-03T02:40:06.658Z,83.73
2018-10-03T02:41:06.690Z,83.35
2018-10-03T02:42:06.711Z,83.44
2018-10-03T02:43:06.721Z,83.54
2018-10-03T02:44:06.759Z,82.78
2018-10-03T02:45:06.769Z,83.06
2018-10-03T02:46:06.794Z,82.78
2018-10-03T02:47:06.883Z,82.40
2018-10-03T02:48:06.849Z,82.59
2018-10-03T02:49:06.873Z,82.11
2018-10-03T02:50:06.893Z,82.68
2018-10-03T02:51:06.912Z,82.01
2018-10-03T02:52:06.939Z,82.59
2018-10-03T02:53:06.959Z,82.59
2018-10-03T02:54:06.981Z,82.68
2018-10-03T02:55:07.007Z,81.82
2018-10-03T02:56:07.020Z,82.68
2018-10-03T02:57:07.050Z,82.78
2018-10-03T02:58:07.086Z,83.16
2018-10-03T02:59:07.112Z,82.97
2018-10-03T03:00:07.122Z,83.64
2018-10-03T03:01:07.149Z,83.06
2018-10-03T03:02:07.167Z,81.82
2018-10-03T03:03:07.199Z,82.68
2018-10-03T03:04:07.212Z,82.40
2018-10-03T03:05:07.236Z,82.68
2018-10-03T03:06:07.258Z,82.78
2018-10-03T03:07:07.300Z,83.25
2018-10-03T03:08:07.309Z,82.59
2018-10-03T03:09:07.395Z,83.16
2018-10-03T03:10:07.357Z,82.59
2018-10-03T03:11:07.379Z,82.87
2018-10-03T03:12:07.400Z,82.68
2018-10-03T03:13:07.421Z,82.78
2018-10-03T03:14:07.523Z,82.59
2018-10-03T03:15:07.469Z,81.92
2018-10-03T03:16:07.520Z,81.82
2018-10-03T03:17:07.520Z,82.97
2018-10-03T03:18:07.535Z,82.11
2018-10-03T03:19:07.563Z,82.11
2018-10-03T03:20:07.590Z,81.92
2018-10-03T03:21:07.603Z,82.30
2018-10-03T03:22:07.630Z,81.63
2018-10-03T03:23:07.656Z,82.20
2018-10-03T03:24:07.678Z,82.49
2018-10-03T03:25:07.695Z,82.30
2018-10-03T03:26:07.727Z,82.20
2018-10-03T03:27:07.744Z,82.11
2018-10-03T03:28:07.778Z,82.59
2018-10-03T03:29:07.792Z,82.30
2018-10-03T03:30:07.820Z,82.20
2018-10-03T03:31:07.868Z,82.40
2018-10-03T03:32:07.943Z,82.11
2018-10-03T03:33:07.892Z,81.63
2018-10-03T03:34:07.919Z,81.73
2018-10-03T03:35:07.929Z,81.73
2018-10-03T03:36:08.008Z,81.54
2018-10-03T03:37:07.978Z,81.35
2018-10-03T03:38:08.022Z,81.54
2018-10-03T03:39:08.034Z,81.54
2018-10-03T03:40:08.059Z,81.63
2018-10-03T03:41:08.076Z,81.25
2018-10-03T03:42:08.103Z,81.35
2018-10-03T03:43:08.118Z,81.44
2018-10-03T03:44:08.148Z,81.15
2018-10-03T03:45:08.180Z,82.01
2018-10-03T03:46:08.209Z,81.15
2018-10-03T03:47:08.208Z,81.25
2018-10-03T03:48:08.234Z,81.25
2018-10-03T03:49:08.260Z,81.15
2018-10-03T03:50:08.292Z,80.58
2018-10-03T03:51:08.301Z,81.06
2018-10-03T03:52:08.347Z,81.06
2018-10-03T03:53:08.351Z,80.68
2018-10-03T03:54:08.372Z,81.06
2018-10-03T03:55:08.406Z,80.96
2018-10-03T03:56:08.469Z,81.06
2018-10-03T03:57:08.452Z,81.35
2018-10-03T03:58:08.493Z,80.96
2018-10-03T03:59:08.502Z,80.87
2018-10-03T04:00:08.622Z,81.15
2018-10-03T04:01:08.544Z,80.49
2018-10-03T04:02:08.568Z,80.39
2018-10-03T04:03:08.588Z,80.58
2018-10-03T04:04:08.616Z,80.49
2018-10-03T04:05:08.648Z,80.77
2018-10-03T04:06:08.655Z,80.30
2018-10-03T04:07:08.686Z,80.49
2018-10-03T04:08:08.724Z,80.58
2018-10-03T04:09:08.723Z,80.68
2018-10-03T04:10:08.747Z,80.77
2018-10-03T04:11:08.764Z,80.30
2018-10-03T04:12:08.795Z,80.77
2018-10-03T04:13:08.818Z,81.15
2018-10-03T04:14:08.832Z,80.30
2018-10-03T04:15:08.878Z,80.39
2018-10-03T04:16:08.895Z,80.58
2018-10-03T04:17:08.924Z,80.30
2018-10-03T04:18:08.936Z,80.11
2018-10-03T04:19:08.957Z,80.68
2018-10-03T04:20:08.989Z,80.39
2018-10-03T04:21:09.003Z,79.53
2018-10-03T04:22:09.032Z,79.44
2018-10-03T04:23:09.053Z,79.82
2018-10-03T04:24:09.086Z,80.77
2018-10-03T04:25:09.091Z,80.11
2018-10-03T04:26:09.131Z,80.39
2018-10-03T04:27:09.158Z,80.20
2018-10-03T04:28:09.175Z,79.82
2018-10-03T04:29:09.185Z,80.11
2018-10-03T04:30:09.218Z,79.82
2018-10-03T04:31:09.301Z,80.01
2018-10-03T04:32:09.259Z,80.39
2018-10-03T04:33:09.294Z,79.82
2018-10-03T04:34:09.310Z,79.53
2018-10-03T04:35:09.334Z,79.53
2018-10-03T04:36:09.348Z,80.01
2018-10-03T04:37:09.381Z,79.72
2018-10-03T04:38:09.392Z,80.01
2018-10-03T04:39:09.419Z,79.72
2018-10-03T04:40:09.440Z,79.35
2018-10-03T04:41:09.470Z,78.96
2018-10-03T04:42:09.530Z,79.63
2018-10-03T04:43:09.524Z,79.25
2018-10-03T04:44:09.541Z,79.35
2018-10-03T04:45:09.573Z,78.77
2018-10-03T04:46:09.598Z,78.86
2018-10-03T04:47:09.606Z,79.15
2018-10-03T04:48:09.626Z,79.15
2018-10-03T04:49:09.801Z,78.96
2018-10-03T04:50:09.673Z,79.25
2018-10-03T04:51:09.718Z,79.35
2018-10-03T04:52:09.724Z,78.49
2018-10-03T04:53:09.752Z,78.49
2018-10-03T04:54:09.767Z,78.77
2018-10-03T04:55:09.812Z,78.39
2018-10-03T04:56:09.825Z,78.58
2018-10-03T04:57:09.837Z,78.49
2018-10-03T04:58:09.865Z,78.49
2018-10-03T04:59:09.949Z,79.15
2018-10-03T05:00:09.921Z,78.96
2018-10-03T05:01:09.964Z,78.58
2018-10-03T05:02:09.971Z,78.58
2018-10-03T05:03:09.981Z,78.49
2018-10-03T05:04:10.023Z,78.39
2018-10-03T05:05:10.034Z,78.39
2018-10-03T05:06:10.049Z,79.15
2018-10-03T05:07:10.084Z,78.49
2018-10-03T05:08:10.103Z,78.77
2018-10-03T05:09:10.124Z,79.25
2018-10-03T05:10:10.137Z,78.49
2018-10-03T05:11:10.185Z,78.86
2018-10-03T05:12:10.182Z,79.15
2018-10-03T05:13:10.216Z,79.06
2018-10-03T05:14:10.251Z,79.15
2018-10-03T05:15:10.259Z,78.86
2018-10-03T05:16:10.300Z,79.06
2018-10-03T05:17:10.315Z,79.15
2018-10-03T05:18:10.332Z,79.06
2018-10-03T05:19:10.346Z,79.06
2018-10-03T05:20:10.368Z,79.25
2018-10-03T05:21:10.403Z,78.86
2018-10-03T05:22:10.418Z,79.06
2018-10-03T05:23:10.472Z,79.35
2018-10-03T05:24:10.482Z,79.15
2018-10-03T05:25:10.485Z,79.44
2018-10-03T05:26:10.518Z,79.06
2018-10-03T05:27:10.549Z,79.15
2018-10-03T05:28:10.560Z,79.35
2018-10-03T05:29:10.584Z,79.25
2018-10-03T05:30:10.609Z,79.25
2018-10-03T05:31:10.633Z,79.15
2018-10-03T05:32:10.644Z,79.25
2018-10-03T05:33:10.684Z,79.06
2018-10-03T05:34:10.700Z,79.44
2018-10-03T05:35:10.719Z,79.25
2018-10-03T05:36:10.745Z,79.25
2018-10-03T05:37:10.789Z,78.86
2018-10-03T05:38:10.786Z,79.06
2018-10-03T05:39:10.811Z,79.25
2018-10-03T05:40:10.860Z,79.44
2018-10-03T05:41:10.860Z,79.35
2018-10-03T05:42:10.885Z,78.96
2018-10-03T05:43:10.906Z,79.06
2018-10-03T05:44:10.942Z,78.77
2018-10-03T05:45:11.024Z,78.58
2018-10-03T05:46:10.976Z,79.15
2018-10-03T05:47:11.010Z,78.58
2018-10-03T05:48:11.027Z,78.39
2018-10-03T05:49:11.044Z,78.49
2018-10-03T05:50:11.084Z,78.86
2018-10-03T05:51:11.092Z,79.06
2018-10-03T05:52:11.143Z,78.39
2018-10-03T05:53:11.141Z,78.30
2018-10-03T05:54:11.178Z,78.86
2018-10-03T05:55:11.191Z,79.15
2018-10-03T05:56:11.209Z,78.20
2018-10-03T05:57:11.283Z,78.39
2018-10-03T05:58:11.272Z,78.77
2018-10-03T05:59:11.301Z,79.15
2018-10-03T06:00:11.299Z,79.53
2018-10-03T06:01:11.319Z,79.82
2018-10-03T06:02:11.347Z,79.91
2018-10-03T06:03:11.394Z,79.44
2018-10-03T06:04:11.397Z,80.01
2018-10-03T06:05:11.601Z,79.63
2018-10-03T06:06:11.441Z,79.91
2018-10-03T06:07:11.582Z,79.82
2018-10-03T06:08:11.486Z,79.63
2018-10-03T06:09:11.534Z,79.82
2018-10-03T06:10:11.530Z,79.82
2018-10-03T06:11:11.631Z,79.63
2018-10-03T06:12:11.627Z,79.35
2018-10-03T06:13:11.607Z,79.35
2018-10-03T06:14:11.627Z,79.53
2018-10-03T06:15:11.671Z,79.63
2018-10-03T06:16:11.678Z,79.53
2018-10-03T06:17:11.735Z,79.25
2018-10-03T06:18:11.715Z,79.15
2018-10-03T06:19:11.752Z,79.06
2018-10-03T06:20:11.764Z,79.25
2018-10-03T06:21:11.802Z,79.06
2018-10-03T06:22:11.812Z,78.77
2018-10-03T06:23:11.834Z,79.15
2018-10-03T06:24:11.881Z,78.39
2018-10-03T06:25:11.888Z,78.39
2018-10-03T06:26:11.908Z,78.39
2018-10-03T06:27:11.930Z,78.86
2018-10-03T06:28:12.016Z,78.77
2018-10-03T06:29:11.970Z,78.30
2018-10-03T06:30:12.026Z,78.39
2018-10-03T06:31:12.036Z,78.49
2018-10-03T06:32:12.044Z,78.30
2018-10-03T06:33:12.107Z,78.49
2018-10-03T06:34:12.104Z,79.15
2018-10-03T06:35:12.107Z,79.35
2018-10-03T06:36:12.144Z,78.49
2018-10-03T06:37:12.155Z,78.67
2018-10-03T06:38:12.183Z,78.30
2018-10-03T06:39:12.268Z,78.20
2018-10-03T06:40:12.270Z,78.20
2018-10-03T06:41:12.257Z,78.67
2018-10-03T06:42:12.271Z,78.58
2018-10-03T06:43:12.293Z,77.62
2018-10-03T06:44:12.381Z,77.82
2018-10-03T06:45:12.375Z,78.10
2018-10-03T06:46:12.393Z,78.20
2018-10-03T06:47:12.403Z,78.62
2018-10-03T06:48:12.414Z,78.67
2018-10-03T06:49:12.550Z,78.58
2018-10-03T06:50:12.461Z,78.30
2018-10-03T06:51:12.488Z,78.33
2018-10-03T06:52:12.503Z,78.86
2018-10-03T06:53:12.647Z,78.67
2018-10-03T06:54:12.554Z,79.06
2018-10-03T06:55:12.578Z,80.49
2018-10-03T06:56:12.598Z,81.15
2018-10-03T06:57:12.632Z,81.35
2018-10-03T06:58:12.644Z,81.73
2018-10-03T06:59:12.684Z,82.49
2018-10-03T07:00:12.704Z,83.44
2018-10-03T07:01:12.730Z,83.25
2018-10-03T07:02:12.750Z,83.25
2018-10-03T07:03:12.764Z,83.25
2018-10-03T07:04:12.783Z,83.54
2018-10-03T07:05:12.823Z,83.73
2018-10-03T07:06:12.909Z,83.83
2018-10-03T07:07:12.878Z,84.88
2018-10-03T07:08:12.886Z,84.11
2018-10-03T07:09:12.911Z,84.11
2018-10-03T07:10:12.921Z,83.06
2018-10-03T07:11:13.011Z,83.25
2018-10-03T07:12:12.992Z,83.54
2018-10-03T07:13:13.063Z,83.54
2018-10-03T07:14:13.093Z,83.35
2018-10-03T07:15:13.042Z,83.25
2018-10-03T07:16:13.065Z,83.25
2018-10-03T07:17:13.087Z,83.06
2018-10-03T07:18:13.116Z,82.68
2018-10-03T07:19:13.164Z,82.78
2018-10-03T07:20:13.170Z,82.97
2018-10-03T07:21:13.186Z,82.59
2018-10-03T07:22:13.216Z,81.92
2018-10-03T07:23:13.228Z,81.82
2018-10-03T07:24:13.255Z,81.15
2018-10-03T07:25:13.277Z,82.01
2018-10-03T07:26:13.474Z,81.25
2018-10-03T07:27:13.329Z,80.81
2018-10-03T07:28:13.356Z,80.33
2018-10-03T07:29:13.370Z,80.43
2018-10-03T07:30:13.408Z,80.33
2018-10-03T07:31:13.451Z,80.81
2018-10-03T07:32:13.459Z,80.43
2018-10-03T07:33:13.474Z,79.86
2018-10-03T07:34:13.480Z,79.86
2018-10-03T07:35:13.574Z,79.77
2018-10-03T07:36:13.585Z,79.86
2018-10-03T07:37:13.560Z,79.96
2018-10-03T07:38:13.660Z,80.53
2018-10-03T07:39:13.626Z,80.53
2018-10-03T07:40:13.634Z,80.15
2018-10-03T07:41:13.711Z,79.77
2018-10-03T07:42:13.670Z,79.67
2018-10-03T07:43:13.718Z,79.67
2018-10-03T07:44:13.757Z,79.67
2018-10-03T07:45:13.756Z,79.48
2018-10-03T07:46:13.773Z,79.10
2018-10-03T07:47:13.814Z,79.86
2018-10-03T07:48:13.812Z,79.28
2018-10-03T07:49:13.888Z,79.00
2018-10-03T07:50:13.865Z,79.38
2018-10-03T07:51:13.915Z,79.10
2018-10-03T07:52:13.980Z,79.00
2018-10-03T07:53:13.926Z,79.48
2018-10-03T07:54:14.038Z,79.28
2018-10-03T07:55:13.977Z,78.72
2018-10-03T07:56:14.051Z,78.43
2018-10-03T07:57:14.088Z,79.10
2018-10-03T07:58:14.065Z,79.19
2018-10-03T07:59:14.125Z,79.19
2018-10-03T08:00:14.266Z,78.43
2018-10-03T08:01:14.144Z,78.72
2018-10-03T08:02:14.148Z,78.72
2018-10-03T08:03:14.178Z,77.86
2018-10-03T08:04:14.198Z,77.76
2018-10-03T08:05:14.214Z,77.86
2018-10-03T08:06:14.246Z,78.72
2018-10-03T08:07:14.268Z,78.33
2018-10-03T08:08:14.286Z,78.52
2018-10-03T08:09:14.322Z,78.52
2018-10-03T08:10:14.365Z,78.72
2018-10-03T08:11:14.404Z,78.33
2018-10-03T08:12:14.409Z,78.52
2018-10-03T08:13:14.405Z,78.91
2018-10-03T08:14:14.509Z,78.85
2018-10-03T08:15:14.496Z,78.56
2018-10-03T08:16:14.484Z,78.09
2018-10-03T08:17:14.533Z,78.75
2018-10-03T08:18:14.536Z,78.18
2018-10-03T08:19:14.558Z,78.09
2018-10-03T08:20:14.594Z,77.89
2018-10-03T08:21:14.607Z,77.70
2018-10-03T08:22:14.615Z,77.61
2018-10-03T08:23:14.648Z,78.18
2018-10-03T08:24:14.665Z,77.61
2018-10-03T08:25:14.717Z,78.09
2018-10-03T08:26:14.725Z,77.70
2018-10-03T08:27:14.736Z,78.18
2018-10-03T08:28:14.794Z,77.89
2018-10-03T08:29:14.794Z,77.23
2018-10-03T08:30:14.848Z,77.13
2018-10-03T08:31:14.841Z,77.13
2018-10-03T08:32:14.962Z,77.51
2018-10-03T08:33:14.966Z,77.80
2018-10-03T08:34:14.943Z,78.09
2018-10-03T08:35:14.938Z,77.99
2018-10-03T08:36:14.953Z,77.99
2018-10-03T08:37:14.983Z,77.42
2018-10-03T08:38:15.006Z,77.80
2018-10-03T08:39:15.023Z,78.28
2018-10-03T08:40:15.064Z,77.80
2018-10-03T08:41:15.075Z,77.13
2018-10-03T08:42:15.095Z,77.03
2018-10-03T08:43:15.156Z,77.23
2018-10-03T08:44:15.155Z,77.42
2018-10-03T08:45:15.228Z,77.32
2018-10-03T08:46:15.236Z,77.03
2018-10-03T08:47:15.268Z,76.56
2018-10-03T08:48:15.244Z,75.98
2018-10-03T08:49:15.364Z,76.18
2018-10-03T08:50:15.314Z,76.75
2018-10-03T08:51:15.464Z,76.27
2018-10-03T08:52:15.367Z,76.27
2018-10-03T08:53:15.364Z,76.08
2018-10-03T08:54:15.387Z,75.60
2018-10-03T08:55:15.402Z,75.79
2018-10-03T08:56:15.437Z,75.98
2018-10-03T08:57:15.451Z,76.08
2018-10-03T08:58:15.626Z,75.89
2018-10-03T08:59:15.509Z,75.42
2018-10-03T09:00:15.555Z,74.84
2018-10-03T09:01:15.558Z,74.55
2018-10-03T09:02:15.583Z,74.37
2018-10-03T09:03:15.592Z,74.84
2018-10-03T09:04:15.619Z,74.84
2018-10-03T09:05:15.653Z,74.93
2018-10-03T09:06:15.704Z,74.46
2018-10-03T09:07:15.735Z,75.51
2018-10-03T09:08:15.729Z,75.98
2018-10-03T09:09:15.742Z,76.08
2018-10-03T09:10:16.018Z,75.89
2018-10-03T09:11:15.849Z,75.22
2018-10-03T09:12:15.822Z,74.93
2018-10-03T09:13:15.854Z,74.74
2018-10-03T09:14:15.869Z,75.03
2018-10-03T09:15:15.920Z,75.26
2018-10-03T09:16:15.917Z,74.21
2018-10-03T09:17:15.936Z,74.40
2018-10-03T09:18:15.966Z,75.51
2018-10-03T09:19:15.998Z,74.02
2018-10-03T09:20:16.003Z,72.87
2018-10-03T09:21:16.064Z,72.11
2018-10-03T09:22:16.073Z,71.47
2018-10-03T09:23:16.072Z,70.61
2018-10-03T09:24:16.125Z,70.52
2018-10-03T09:25:16.118Z,70.52
2018-10-03T09:26:16.152Z,70.87
2018-10-03T09:27:16.177Z,70.67
2018-10-03T09:28:16.249Z,71.28
2018-10-03T09:29:16.220Z,70.52
2018-10-03T09:30:16.259Z,70.14
2018-10-03T09:31:16.280Z,70.71
2018-10-03T09:32:16.314Z,70.90
2018-10-03T09:33:16.328Z,70.14
2018-10-03T09:34:16.340Z,69.79
2018-10-03T09:35:16.398Z,69.02
2018-10-03T09:36:16.389Z,69.21
2018-10-03T09:37:16.435Z,68.93
2018-10-03T09:38:16.434Z,68.93
2018-10-03T09:39:16.475Z,68.26
2018-10-03T09:40:16.521Z,68.10
2018-10-03T09:41:16.519Z,67.27
2018-10-03T09:42:16.542Z,66.06
2018-10-03T09:43:16.628Z,65.11
2018-10-03T09:44:16.606Z,65.17
2018-10-03T09:45:16.664Z,64.69
2018-10-03T09:46:16.640Z,64.69
2018-10-03T09:47:16.676Z,64.05
2018-10-03T09:48:16.683Z,63.19
2018-10-03T09:49:16.729Z,63.57
2018-10-03T09:50:16.740Z,64.69
2018-10-03T09:51:16.752Z,65.84
2018-10-03T09:52:16.772Z,66.89
2018-10-03T09:53:16.825Z,67.82
2018-10-03T09:54:16.831Z,67.34
2018-10-03T09:55:16.889Z,66.99
2018-10-03T09:56:16.883Z,66.51
2018-10-03T09:57:16.942Z,65.49
2018-10-03T09:58:16.950Z,65.17
2018-10-03T09:59:16.971Z,66.28
2018-10-03T10:00:17.004Z,67.05
2018-10-03T10:01:16.996Z,66.86
2018-10-03T10:02:17.077Z,67.14
2018-10-03T10:03:17.051Z,67.05
2018-10-03T10:04:17.094Z,66.73
2018-10-03T10:05:17.155Z,66.63
2018-10-03T10:06:17.157Z,66.63
2018-10-03T10:07:17.208Z,66.63
2018-10-03T10:08:17.190Z,66.63
2018-10-03T10:09:17.191Z,66.89
2018-10-03T10:10:17.259Z,66.73
2018-10-03T10:11:17.409Z,67.02
2018-10-03T10:12:17.256Z,66.63
2018-10-03T10:13:17.313Z,66.92
2018-10-03T10:14:17.359Z,67.11
2018-10-03T10:15:17.340Z,67.21
2018-10-03T10:16:17.458Z,68.16
2018-10-03T10:17:17.396Z,68.80
2018-10-03T10:18:17.409Z,68.16
2018-10-03T10:19:17.565Z,68.93
2018-10-03T10:20:17.505Z,68.74
2018-10-03T10:21:17.559Z,68.35
2018-10-03T10:22:17.525Z,67.91
2018-10-03T10:23:17.537Z,66.96
2018-10-03T10:24:17.604Z,66.63
2018-10-03T10:25:17.619Z,66.86
2018-10-03T10:26:17.657Z,67.21
2018-10-03T10:27:17.633Z,66.54
2018-10-03T10:28:17.666Z,67.91
2018-10-03T10:29:17.701Z,65.94
2018-10-03T10:30:17.715Z,65.08
2018-10-03T10:31:17.754Z,62.96
2018-10-03T10:32:17.917Z,60.89
2018-10-03T10:33:18.790Z,58.62
2018-10-03T10:34:17.903Z,57.75
2018-10-03T10:35:17.876Z,57.62
2018-10-03T10:36:17.862Z,57.21
2018-10-03T10:37:17.951Z,57.01
2018-10-03T10:38:17.966Z,58.04
2018-10-03T10:39:17.940Z,58.14
2018-10-03T10:40:18.034Z,58.42
2018-10-03T10:41:18.095Z,57.75
2018-10-03T10:42:18.698Z,58.52
2018-10-03T10:43:18.172Z,59.93
2018-10-03T10:44:18.067Z,60.19
2018-10-03T10:45:18.109Z,60.09
2018-10-03T10:46:18.242Z,59.77
2018-10-03T10:47:18.139Z,60.00
2018-10-03T10:48:18.268Z,60.47
2018-10-03T10:49:18.211Z,60.96
2018-10-03T10:50:18.292Z,60.57
2018-10-03T10:51:18.288Z,60.54
2018-10-03T10:52:18.275Z,61.28
2018-10-03T10:53:18.303Z,61.18
2018-10-03T10:54:18.322Z,62.23
2018-10-03T10:55:18.375Z,61.88
2018-10-03T10:56:18.372Z,61.85
2018-10-03T10:58:18.455Z,64.63
2018-10-03T10:59:18.512Z,66.61
2018-10-03T11:00:18.492Z,68.42
2018-10-03T11:01:18.536Z,71.26
2018-10-03T11:02:18.551Z,73.23
2018-10-03T11:03:18.566Z,74.09
2018-10-03T11:04:18.578Z,74.66
2018-10-03T11:05:18.629Z,75.20
2018-10-03T11:06:19.323Z,75.14
2018-10-03T11:07:18.723Z,75.14
2018-10-03T11:08:18.698Z,75.24
2018-10-03T11:09:18.747Z,76.20
2018-10-03T11:10:18.731Z,76.48
2018-10-03T11:11:18.794Z,76.29
2018-10-03T11:12:18.794Z,76.00
2018-10-03T11:13:18.937Z,76.10
2018-10-03T11:14:18.838Z,75.62
2018-10-03T11:15:18.854Z,75.91
2018-10-03T11:16:18.919Z,77.19
2018-10-03T11:17:18.935Z,76.71
2018-10-03T11:18:18.927Z,76.52
2018-10-03T11:19:18.989Z,77.00
2018-10-03T11:20:19.084Z,76.14
2018-10-03T11:21:19.002Z,76.48
2018-10-03T11:22:19.095Z,76.20
2018-10-03T11:23:19.114Z,76.48
2018-10-03T11:24:19.234Z,77.06
2018-10-03T11:25:19.118Z,76.57
2018-10-03T11:26:19.179Z,76.48
2018-10-03T11:27:19.177Z,76.67
2018-10-03T11:28:19.201Z,77.50
2018-10-03T11:29:19.224Z,77.78
2018-10-03T11:30:19.311Z,79.64
2018-10-03T11:31:19.270Z,78.68
2018-10-03T11:32:19.315Z,78.74
2018-10-03T11:33:19.334Z,78.36
2018-10-03T11:34:19.431Z,79.02
2018-10-03T11:35:19.459Z,79.22
2018-10-03T11:36:19.423Z,78.83
2018-10-03T11:37:19.432Z,78.93
2018-10-03T11:38:20.016Z,78.83
2018-10-03T11:39:19.468Z,79.44
2018-10-03T11:40:19.585Z,78.87
2018-10-03T11:41:19.503Z,78.11
2018-10-03T11:42:19.543Z,77.06
2018-10-03T11:43:19.560Z,77.53
2018-10-03T11:44:19.598Z,77.34
2018-10-03T11:45:19.621Z,76.14
2018-10-03T11:46:19.700Z,75.02
2018-10-03T11:47:19.686Z,73.91
2018-10-03T11:48:19.722Z,70.89
2018-10-03T11:49:19.719Z,68.85
2018-10-03T11:50:19.731Z,66.58
2018-10-03T11:51:20.016Z,66.29
2018-10-03T11:52:19.788Z,65.56
2018-10-03T11:53:19.806Z,65.23
2018-10-03T11:54:20.056Z,64.92
2018-10-03T11:55:19.860Z,63.45
2018-10-03T11:56:19.908Z,63.99
2018-10-03T11:57:19.911Z,65.05
2018-10-03T11:58:19.953Z,65.59
2018-10-03T11:59:20.008Z,66.42
2018-10-03T12:00:20.034Z,67.54
2018-10-03T12:01:20.076Z,67.34
2018-10-03T12:02:20.090Z,68.59
2018-10-03T12:03:20.142Z,68.78
2018-10-03T12:04:20.111Z,69.89
2018-10-03T12:05:20.134Z,70.76
2018-10-03T12:06:20.210Z,69.80
2018-10-03T12:07:20.221Z,70.47
2018-10-03T12:08:20.282Z,71.42
2018-10-03T12:09:20.319Z,72.25
2018-10-03T12:10:20.278Z,72.25
2018-10-03T12:11:20.378Z,73.88
2018-10-03T12:12:20.335Z,72.34
2018-10-03T12:13:20.352Z,73.40
2018-10-03T12:14:20.386Z,74.45
2018-10-03T12:15:20.402Z,73.30
2018-10-03T12:16:20.424Z,72.63
2018-10-03T12:17:20.471Z,72.16
2018-10-03T12:18:20.488Z,72.83
2018-10-03T12:19:20.515Z,72.54
2018-10-03T12:20:20.548Z,71.48
2018-10-03T12:21:20.559Z,70.81
2018-10-03T12:22:20.608Z,70.15
2018-10-03T12:23:20.624Z,69.95
2018-10-03T12:24:20.649Z,69.48
2018-10-03T12:25:20.764Z,69.38
2018-10-03T12:26:20.702Z,69.19
2018-10-03T12:27:20.730Z,68.71
2018-10-03T12:28:20.758Z,66.89
2018-10-03T12:29:20.764Z,66.41
2018-10-03T12:30:20.807Z,66.80
2018-10-03T12:31:20.817Z,66.61
2018-10-03T12:32:20.838Z,66.41
2018-10-03T12:33:20.958Z,64.98
2018-10-03T12:34:20.893Z,64.79
2018-10-03T12:35:20.918Z,64.98
2018-10-03T12:36:20.950Z,65.45
2018-10-03T12:37:20.970Z,66.32
2018-10-03T12:38:20.991Z,66.61
2018-10-03T12:39:21.043Z,66.70
2018-10-03T12:40:21.059Z,68.42
2018-10-03T12:41:21.076Z,71.20
2018-10-03T12:42:21.199Z,71.01
2018-10-03T12:43:21.117Z,71.11
2018-10-03T12:44:21.227Z,71.01
2018-10-03T12:45:21.224Z,71.01
2018-10-03T12:46:21.211Z,71.11
2018-10-03T12:47:21.230Z,70.05
2018-10-03T12:48:21.251Z,70.81
2018-10-03T12:49:21.270Z,70.78
2018-10-03T12:50:21.312Z,70.59
2018-10-03T12:51:21.323Z,71.45
2018-10-03T12:52:21.369Z,72.69
2018-10-03T12:53:21.382Z,72.50